PALU

Cape Lisburne LRRS Airport

Airport
ICAO code
PALU
IATA Code
LUR
Summary
ICAO Region
NAM
ICAO Territory
Location

Cape Lisburne, Alaska

Serving
Cape Lisburne
Elevation
16 ft
Coordinates
68° 52' 30" N , 166° 6' 36" W
Metar
PALU 191855Z AUTO 07004KT 10SM FEW001 BKN100 BKN120 04/04 A3001 RMK AO2 SHRAB1820E1846 SLP163 T00360038

Runways

Designator Length Width Surface Rops
8/26 1463 41 GVL No/No

Airport map

Aerial View

SKYbrary Partners:

Safety knowledge contributed by: